createdAt,value
2023-12-07T00:02:23.522Z,7.63
2023-12-07T00:04:50.098Z,7.18
2023-12-07T00:07:16.568Z,7.60
2023-12-07T00:09:42.952Z,7.00
2023-12-07T00:12:09.423Z,6.80
2023-12-07T00:14:35.888Z,7.43
2023-12-07T00:17:02.439Z,7.13
2023-12-07T00:19:28.883Z,6.82
2023-12-07T00:21:55.914Z,7.60
2023-12-07T00:24:22.778Z,6.47
2023-12-07T00:26:49.121Z,7.30
2023-12-07T00:29:15.459Z,7.53
2023-12-07T00:31:41.813Z,7.00
2023-12-07T00:34:08.199Z,6.68
2023-12-07T00:36:34.559Z,6.83
2023-12-07T00:39:00.932Z,6.55
2023-12-07T00:41:27.299Z,6.57
2023-12-07T00:43:53.610Z,7.03
2023-12-07T00:46:20.013Z,7.57
2023-12-07T00:48:47.575Z,6.97
2023-12-07T00:51:13.914Z,6.85
2023-12-07T00:53:40.407Z,6.78
2023-12-07T00:56:07.719Z,6.72
2023-12-07T00:58:34.159Z,7.22
2023-12-07T01:01:01.004Z,6.90
2023-12-07T01:03:27.415Z,6.60
2023-12-07T01:05:53.876Z,7.20
2023-12-07T01:08:20.269Z,6.18
2023-12-07T01:10:46.606Z,6.80
2023-12-07T01:13:12.966Z,6.30
2023-12-07T01:15:39.373Z,6.78
2023-12-07T01:18:05.919Z,7.15
2023-12-07T01:20:32.386Z,6.95
2023-12-07T01:22:58.739Z,6.70
2023-12-07T01:25:25.470Z,6.60
2023-12-07T01:27:52.013Z,6.60
2023-12-07T01:30:18.509Z,7.40
2023-12-07T01:32:45.057Z,7.20
2023-12-07T01:35:11.735Z,7.57
2023-12-07T01:37:38.638Z,6.70
2023-12-07T01:40:05.729Z,7.03
2023-12-07T01:42:32.441Z,7.43
2023-12-07T01:44:59.482Z,7.00
2023-12-07T01:47:25.895Z,7.30
2023-12-07T01:49:52.518Z,6.90
2023-12-07T01:52:21.894Z,7.40
2023-12-07T01:54:48.326Z,7.07
2023-12-07T01:57:15.191Z,6.88
2023-12-07T01:59:41.636Z,6.60
2023-12-07T02:02:09.453Z,7.13
2023-12-07T02:04:36.560Z,6.68
2023-12-07T02:07:04.301Z,7.40
2023-12-07T02:09:30.695Z,6.82
2023-12-07T02:11:57.094Z,7.30
2023-12-07T02:14:24.518Z,6.60
2023-12-07T02:17:15.951Z,6.97
2023-12-07T02:20:06.455Z,6.63
2023-12-07T02:22:42.581Z,6.93
2023-12-07T02:25:12.030Z,7.10
2023-12-07T02:27:42.970Z,6.97
2023-12-07T02:30:11.537Z,6.95
2023-12-07T02:32:39.550Z,7.32
2023-12-07T02:35:07.373Z,6.85
2023-12-07T02:37:41.574Z,6.68
2023-12-07T02:40:09.809Z,6.23
2023-12-07T02:42:36.606Z,6.95
2023-12-07T02:45:04.452Z,7.32
2023-12-07T02:47:31.037Z,6.38
2023-12-07T02:49:57.391Z,6.72
2023-12-07T02:52:25.248Z,6.97
2023-12-07T02:54:51.785Z,7.30
2023-12-07T02:57:18.202Z,5.93
2023-12-07T02:59:44.748Z,6.63
2023-12-07T03:02:11.117Z,6.50
2023-12-07T03:04:37.560Z,7.17
2023-12-07T03:07:04.195Z,6.80
2023-12-07T03:09:30.833Z,6.60
2023-12-07T03:11:57.182Z,6.70
2023-12-07T03:14:23.625Z,6.70
2023-12-07T03:16:50.076Z,6.13
2023-12-07T03:19:16.530Z,6.50
2023-12-07T03:21:43.534Z,6.18
2023-12-07T03:24:10.637Z,6.28
2023-12-07T03:26:37.760Z,6.10
2023-12-07T03:29:04.438Z,5.80
2023-12-07T03:31:31.315Z,6.35
2023-12-07T03:33:57.974Z,6.13
2023-12-07T03:36:24.493Z,5.97
2023-12-07T03:38:51.077Z,6.30
2023-12-07T03:41:17.588Z,6.23
2023-12-07T03:43:44.170Z,5.97
2023-12-07T03:46:10.715Z,5.28
2023-12-07T03:48:37.287Z,6.03
2023-12-07T03:51:03.950Z,5.70
2023-12-07T03:53:30.298Z,5.80
2023-12-07T03:55:58.070Z,5.95
2023-12-07T03:58:24.821Z,5.65
2023-12-07T04:00:51.432Z,5.20
2023-12-07T04:03:17.852Z,5.90
2023-12-07T04:05:44.287Z,5.40
2023-12-07T04:08:10.687Z,5.40
2023-12-07T04:10:37.030Z,5.80
2023-12-07T04:13:03.704Z,5.55
2023-12-07T04:15:30.089Z,6.00
2023-12-07T04:17:56.434Z,5.23
2023-12-07T04:20:22.821Z,4.85
2023-12-07T04:22:51.941Z,5.50
2023-12-07T04:25:20.367Z,5.50
2023-12-07T04:27:46.757Z,5.15
2023-12-07T04:30:14.722Z,5.53
2023-12-07T04:32:42.390Z,4.93
2023-12-07T04:35:09.060Z,5.10
2023-12-07T04:37:35.471Z,5.38
2023-12-07T04:40:02.724Z,5.82
2023-12-07T04:42:29.124Z,5.63
2023-12-07T04:44:55.492Z,6.38
2023-12-07T04:47:21.984Z,5.50
2023-12-07T04:49:48.347Z,5.53
2023-12-07T04:52:15.489Z,5.38
2023-12-07T04:54:41.920Z,5.90
2023-12-07T04:57:08.390Z,5.43
2023-12-07T04:59:37.958Z,5.72
2023-12-07T05:02:05.129Z,5.13
2023-12-07T05:04:33.529Z,6.00
2023-12-07T05:07:00.375Z,5.20
2023-12-07T05:09:27.066Z,5.68
2023-12-07T05:11:53.451Z,5.32
2023-12-07T05:14:20.234Z,5.50
2023-12-07T05:16:46.655Z,5.53
2023-12-07T05:19:13.059Z,5.10
2023-12-07T05:21:39.555Z,5.30
2023-12-07T05:24:06.197Z,5.70
2023-12-07T05:26:32.591Z,5.28
2023-12-07T05:28:58.963Z,5.88
2023-12-07T05:31:25.552Z,5.27
2023-12-07T05:33:51.952Z,6.65
2023-12-07T05:36:18.299Z,5.70
2023-12-07T05:38:44.635Z,5.82
2023-12-07T05:41:11.068Z,5.88
2023-12-07T05:43:37.445Z,5.57
2023-12-07T05:46:03.951Z,5.43
2023-12-07T05:48:30.486Z,5.57
2023-12-07T05:50:56.937Z,6.28
2023-12-07T05:53:23.608Z,5.78
2023-12-07T05:55:50.013Z,9.10
2023-12-07T05:58:16.390Z,6.97
2023-12-07T06:00:42.867Z,8.73
2023-12-07T06:03:09.252Z,6.55
2023-12-07T06:05:38.937Z,8.70
2023-12-07T06:08:06.016Z,8.67
2023-12-07T06:10:32.423Z,8.73
2023-12-07T06:12:59.306Z,9.35
2023-12-07T06:15:25.731Z,8.02
2023-12-07T06:17:52.150Z,8.23
2023-12-07T06:20:18.664Z,8.17
2023-12-07T06:22:45.094Z,8.02
2023-12-07T06:25:11.530Z,7.45
2023-12-07T06:27:38.090Z,9.32
2023-12-07T06:30:06.185Z,7.10
2023-12-07T06:32:33.267Z,7.17
2023-12-07T06:34:59.736Z,7.93
2023-12-07T06:37:26.189Z,8.40
2023-12-07T06:39:52.655Z,8.43
2023-12-07T06:42:19.074Z,7.70
2023-12-07T06:44:48.348Z,7.93
2023-12-07T06:47:14.675Z,7.65
2023-12-07T06:49:49.808Z,8.15
2023-12-07T06:52:19.245Z,7.95
2023-12-07T06:54:45.679Z,7.95
2023-12-07T06:57:12.176Z,8.53
2023-12-07T06:59:38.726Z,10.88
2023-12-07T07:02:05.156Z,8.48
2023-12-07T07:04:31.616Z,7.60
2023-12-07T07:06:58.054Z,8.07
2023-12-07T07:09:24.494Z,9.07
2023-12-07T07:11:50.913Z,9.50
2023-12-07T07:14:17.657Z,8.68
2023-12-07T07:16:44.120Z,9.23
2023-12-07T07:19:11.795Z,9.40
2023-12-07T07:21:38.274Z,9.10
2023-12-07T07:24:06.265Z,9.00
2023-12-07T07:26:33.401Z,8.05
2023-12-07T07:28:59.844Z,6.93
2023-12-07T07:31:26.197Z,10.60
2023-12-07T07:34:00.533Z,7.77
2023-12-07T07:36:28.055Z,8.50
2023-12-07T07:38:54.648Z,10.52
2023-12-07T07:41:21.135Z,8.98
2023-12-07T07:43:48.804Z,9.93
2023-12-07T07:46:15.651Z,9.57
2023-12-07T07:48:42.106Z,8.10
2023-12-07T07:51:08.637Z,10.50
2023-12-07T07:53:35.245Z,9.27
2023-12-07T07:56:01.747Z,9.27
2023-12-07T07:58:28.206Z,9.10
2023-12-07T08:00:54.715Z,9.45
2023-12-07T08:03:21.101Z,7.03
2023-12-07T08:05:47.523Z,9.25
2023-12-07T08:08:13.970Z,9.45
2023-12-07T08:10:53.667Z,7.60
2023-12-07T08:13:22.587Z,9.00
2023-12-07T08:15:48.987Z,7.57
2023-12-07T08:18:15.408Z,11.15
2023-12-07T08:20:41.778Z,10.30
2023-12-07T08:23:08.637Z,9.10
2023-12-07T08:25:35.086Z,10.80
2023-12-07T08:28:01.462Z,11.43
2023-12-07T08:30:27.918Z,8.38
2023-12-07T08:32:54.624Z,8.43
2023-12-07T08:35:21.278Z,8.73
2023-12-07T08:37:47.685Z,7.20
2023-12-07T08:40:14.236Z,9.27
2023-12-07T08:42:40.683Z,9.60
2023-12-07T08:45:07.465Z,6.80
2023-12-07T08:47:34.940Z,8.43
2023-12-07T08:50:01.486Z,8.00
2023-12-07T08:52:36.017Z,8.27
2023-12-07T08:55:10.019Z,7.75
2023-12-07T08:57:36.471Z,7.50
2023-12-07T09:00:02.994Z,9.17
2023-12-07T09:02:37.834Z,8.18
2023-12-07T09:05:11.980Z,10.30
2023-12-07T09:07:38.329Z,7.20
2023-12-07T09:10:05.282Z,9.70
2023-12-07T09:12:37.921Z,8.77
2023-12-07T09:15:06.296Z,8.77
2023-12-07T09:17:32.658Z,10.50
2023-12-07T09:19:59.035Z,8.10
2023-12-07T09:22:31.693Z,11.23
2023-12-07T09:25:03.783Z,7.37
2023-12-07T09:27:30.160Z,8.65
2023-12-07T09:29:56.694Z,8.93
2023-12-07T09:32:29.962Z,8.65
2023-12-07T09:35:00.025Z,6.90
2023-12-07T09:37:26.679Z,9.07
2023-12-07T09:39:53.348Z,8.20
2023-12-07T09:42:22.910Z,7.10
2023-12-07T09:44:49.765Z,8.77
2023-12-07T09:47:22.427Z,9.90
2023-12-07T09:49:54.873Z,8.57
2023-12-07T09:52:22.663Z,7.43
2023-12-07T09:54:50.204Z,7.63
2023-12-07T09:57:16.996Z,7.15
2023-12-07T09:59:43.622Z,8.60
2023-12-07T10:02:10.237Z,7.17
2023-12-07T10:04:36.943Z,6.55
2023-12-07T10:07:03.531Z,7.53
2023-12-07T10:09:33.524Z,6.88
2023-12-07T10:12:05.642Z,7.00
2023-12-07T10:14:32.925Z,6.90
2023-12-07T10:17:01.112Z,6.40
2023-12-07T10:19:31.888Z,7.47
2023-12-07T10:21:59.500Z,5.93
2023-12-07T10:24:26.535Z,6.53
2023-12-07T10:27:02.536Z,5.87
2023-12-07T10:29:33.225Z,6.80
2023-12-07T10:32:02.229Z,6.03
2023-12-07T10:34:28.641Z,6.47
2023-12-07T10:36:55.272Z,8.48
2023-12-07T10:39:25.542Z,5.70
2023-12-07T10:42:03.222Z,5.45
2023-12-07T10:44:29.749Z,6.15
2023-12-07T10:46:57.497Z,6.25
2023-12-07T10:49:32.505Z,5.70
2023-12-07T10:52:07.628Z,5.90
2023-12-07T10:55:04.475Z,6.90
2023-12-07T10:57:34.448Z,5.72
2023-12-07T11:00:02.050Z,5.70
2023-12-07T11:02:34.107Z,5.05
2023-12-07T11:05:02.812Z,5.27
2023-12-07T11:07:48.476Z,5.10
2023-12-07T11:10:44.141Z,6.30
2023-12-07T11:13:31.964Z,5.22
2023-12-07T11:15:58.576Z,4.82
2023-12-07T11:18:29.160Z,5.40
2023-12-07T11:20:56.771Z,5.35
2023-12-07T11:23:23.537Z,5.30
2023-12-07T11:25:52.355Z,5.47
2023-12-07T11:28:19.157Z,5.85
2023-12-07T11:30:46.955Z,7.47
2023-12-07T11:33:16.437Z,6.15
2023-12-07T11:36:05.600Z,5.75
2023-12-07T11:38:31.991Z,5.03
2023-12-07T11:40:58.540Z,5.35
2023-12-07T11:43:34.455Z,5.40
2023-12-07T11:46:01.158Z,4.95
2023-12-07T11:48:27.798Z,5.13
2023-12-07T11:51:07.976Z,7.13
2023-12-07T11:53:36.596Z,6.50
2023-12-07T11:56:05.307Z,6.47
2023-12-07T11:58:36.208Z,7.18
2023-12-07T12:01:05.804Z,7.35
2023-12-07T12:03:32.952Z,5.25
2023-12-07T12:05:59.624Z,7.93
2023-12-07T12:08:26.123Z,7.00
2023-12-07T12:10:53.050Z,7.25
2023-12-07T12:13:19.600Z,7.20
2023-12-07T12:15:47.047Z,7.05
2023-12-07T12:18:13.810Z,6.13
2023-12-07T12:20:40.525Z,8.33
2023-12-07T12:23:07.042Z,7.25
2023-12-07T12:25:34.765Z,7.15
2023-12-07T12:28:06.512Z,6.78
2023-12-07T12:30:33.716Z,7.25
2023-12-07T12:33:00.383Z,7.47
2023-12-07T12:35:27.397Z,7.68
2023-12-07T12:37:54.072Z,7.75
2023-12-07T12:40:24.500Z,8.32
2023-12-07T12:42:55.729Z,7.95
2023-12-07T12:45:24.611Z,7.40
2023-12-07T12:47:51.041Z,7.07
2023-12-07T12:50:37.118Z,9.00
2023-12-07T12:53:05.223Z,7.25
2023-12-07T12:55:33.955Z,8.02
2023-12-07T12:58:00.488Z,7.03
2023-12-07T13:00:27.094Z,7.63
2023-12-07T13:02:53.501Z,8.88
2023-12-07T13:05:19.848Z,8.10
2023-12-07T13:07:46.533Z,7.00
2023-12-07T13:10:13.029Z,8.93
2023-12-07T13:12:39.423Z,9.27
2023-12-07T13:15:06.136Z,12.13
2023-12-07T13:17:32.551Z,8.55
2023-12-07T13:19:59.045Z,7.97
2023-12-07T13:22:25.523Z,7.80
2023-12-07T13:24:51.931Z,10.27
2023-12-07T13:27:18.337Z,9.13
2023-12-07T13:29:44.804Z,9.10
2023-12-07T13:32:11.442Z,9.55
2023-12-07T13:34:37.917Z,8.17
2023-12-07T13:37:04.362Z,7.63
2023-12-07T13:39:31.825Z,9.07
2023-12-07T13:42:00.906Z,10.68
2023-12-07T13:44:29.474Z,14.13
2023-12-07T13:46:56.555Z,8.90
2023-12-07T13:49:32.016Z,9.95
2023-12-07T13:52:02.846Z,11.00
2023-12-07T13:54:46.067Z,11.02
2023-12-07T13:57:18.893Z,10.50
2023-12-07T13:59:45.255Z,11.10
2023-12-07T14:02:12.475Z,10.23
2023-12-07T14:04:39.635Z,11.15
2023-12-07T14:07:14.657Z,11.18
2023-12-07T14:09:50.506Z,12.15
2023-12-07T14:12:23.616Z,12.30
2023-12-07T14:14:50.078Z,10.80
2023-12-07T14:17:17.693Z,11.52
2023-12-07T14:19:45.855Z,11.18
2023-12-07T14:22:12.366Z,10.15
2023-12-07T14:24:39.432Z,10.10
2023-12-07T14:27:07.644Z,12.40
2023-12-07T14:29:34.491Z,12.95
2023-12-07T14:32:03.369Z,13.25
2023-12-07T14:34:34.661Z,12.52
2023-12-07T14:37:02.672Z,12.90
2023-12-07T14:39:29.058Z,12.00
2023-12-07T14:41:55.434Z,15.65
2023-12-07T14:44:28.906Z,13.20
2023-12-07T14:46:56.120Z,14.18
2023-12-07T14:49:22.678Z,14.93
2023-12-07T14:51:49.546Z,15.32
2023-12-07T14:54:22.730Z,12.63
2023-12-07T14:56:53.235Z,16.15
2023-12-07T14:59:19.962Z,16.27
2023-12-07T15:01:46.551Z,15.60
2023-12-07T15:04:21.474Z,16.83
2023-12-07T15:06:54.522Z,13.25
2023-12-07T15:09:20.883Z,20.05
2023-12-07T15:11:47.393Z,17.00
2023-12-07T15:14:21.427Z,14.13
2023-12-07T15:16:57.021Z,16.88
2023-12-07T15:19:23.810Z,16.45
2023-12-07T15:21:50.230Z,14.60
2023-12-07T15:24:23.348Z,17.30
2023-12-07T15:26:55.985Z,15.20
2023-12-07T15:29:22.511Z,17.83
2023-12-07T15:31:48.856Z,15.15
2023-12-07T15:34:25.153Z,20.80
2023-12-07T15:36:55.763Z,16.33
2023-12-07T15:39:23.119Z,16.37
2023-12-07T15:41:49.468Z,14.43
2023-12-07T15:44:20.123Z,14.30
2023-12-07T15:46:49.320Z,14.15
2023-12-07T15:49:15.994Z,14.48
2023-12-07T15:51:42.569Z,13.77
2023-12-07T15:54:09.289Z,16.50
2023-12-07T15:56:41.532Z,16.23
2023-12-07T15:59:08.889Z,16.23
2023-12-07T16:01:35.186Z,13.90
2023-12-07T16:04:01.597Z,12.67
2023-12-07T16:06:28.046Z,14.18
2023-12-07T16:08:55.240Z,16.67
2023-12-07T16:11:21.662Z,16.70
2023-12-07T16:13:47.984Z,15.55
2023-12-07T16:16:14.509Z,21.30
2023-12-07T16:18:41.017Z,18.38
2023-12-07T16:21:09.111Z,23.33
2023-12-07T16:23:35.633Z,16.15
2023-12-07T16:26:02.010Z,19.02
2023-12-07T16:28:29.092Z,18.20
2023-12-07T16:30:55.599Z,34.58
2023-12-07T16:33:22.080Z,34.72
2023-12-07T16:35:48.512Z,29.73
2023-12-07T16:38:14.878Z,25.27
2023-12-07T16:40:41.166Z,28.37
2023-12-07T16:43:07.485Z,24.75
2023-12-07T16:45:35.794Z,23.67
2023-12-07T16:48:02.293Z,21.40
2023-12-07T16:50:30.190Z,21.77
2023-12-07T16:52:58.552Z,21.73
2023-12-07T16:55:25.440Z,24.95
2023-12-07T16:57:51.944Z,29.77
2023-12-07T17:00:18.549Z,21.05
2023-12-07T17:02:45.025Z,21.77
2023-12-07T17:05:11.444Z,23.03
2023-12-07T17:07:37.816Z,21.92
2023-12-07T17:10:05.335Z,19.85
2023-12-07T17:12:31.655Z,23.75
2023-12-07T17:14:58.129Z,19.08
2023-12-07T17:17:24.892Z,21.50
2023-12-07T17:19:52.017Z,24.13
2023-12-07T17:22:18.651Z,20.10
2023-12-07T17:24:46.057Z,18.77
2023-12-07T17:27:12.486Z,18.88
2023-12-07T17:29:39.897Z,17.70
2023-12-07T17:32:06.690Z,21.10
2023-12-07T17:34:33.354Z,19.27
2023-12-07T17:36:59.909Z,24.83
2023-12-07T17:39:26.289Z,18.90
2023-12-07T17:41:52.718Z,15.60
2023-12-07T17:44:19.129Z,20.85
2023-12-07T17:46:45.523Z,20.85
2023-12-07T17:49:12.080Z,19.25
2023-12-07T17:51:38.718Z,18.73
2023-12-07T17:54:05.324Z,19.13
2023-12-07T17:56:31.788Z,19.80
2023-12-07T17:58:58.417Z,18.20
2023-12-07T18:01:25.083Z,20.00
2023-12-07T18:03:51.496Z,14.93
2023-12-07T18:06:18.080Z,21.30
2023-12-07T18:08:44.592Z,17.42
2023-12-07T18:11:20.822Z,15.32
2023-12-07T18:13:47.291Z,15.23
2023-12-07T18:16:13.654Z,17.58
2023-12-07T18:18:40.193Z,13.80
2023-12-07T18:21:07.067Z,16.50
2023-12-07T18:23:34.519Z,15.15
2023-12-07T18:26:01.206Z,13.63
2023-12-07T18:28:27.649Z,14.90
2023-12-07T18:30:53.969Z,13.67
2023-12-07T18:33:20.445Z,14.57
2023-12-07T18:35:47.032Z,14.10
2023-12-07T18:38:13.913Z,15.18
2023-12-07T18:40:41.574Z,16.65
2023-12-07T18:43:07.968Z,12.77
2023-12-07T18:45:34.350Z,13.23
2023-12-07T18:48:00.884Z,13.73
2023-12-07T18:50:27.402Z,15.13
2023-12-07T18:52:53.831Z,12.15
2023-12-07T18:55:20.239Z,11.97
2023-12-07T18:57:46.771Z,13.13
2023-12-07T19:00:14.825Z,11.50
2023-12-07T19:02:41.663Z,11.13
2023-12-07T19:05:09.662Z,11.02
2023-12-07T19:07:36.710Z,10.63
2023-12-07T19:10:03.299Z,10.60
2023-12-07T19:12:29.815Z,11.18
2023-12-07T19:14:56.682Z,11.38
2023-12-07T19:17:23.472Z,9.60
2023-12-07T19:19:50.587Z,10.50
2023-12-07T19:22:17.091Z,11.70
2023-12-07T19:24:43.451Z,11.63
2023-12-07T19:27:11.185Z,13.77
2023-12-07T19:29:37.985Z,9.30
2023-12-07T19:32:04.585Z,12.27
2023-12-07T19:34:30.938Z,10.43
2023-12-07T19:36:57.350Z,8.60
2023-12-07T19:39:23.763Z,11.40
2023-12-07T19:41:50.589Z,10.15
2023-12-07T19:44:17.595Z,10.70
2023-12-07T19:46:44.038Z,10.93
2023-12-07T19:49:12.800Z,10.38
2023-12-07T19:51:39.405Z,9.23
2023-12-07T19:54:05.851Z,10.18
2023-12-07T19:56:34.464Z,9.07
2023-12-07T19:59:00.848Z,10.45
2023-12-07T20:01:27.214Z,10.40
2023-12-07T20:03:53.728Z,9.30
2023-12-07T20:06:28.121Z,10.45
2023-12-07T20:08:57.916Z,8.47
2023-12-07T20:11:24.470Z,9.23
2023-12-07T20:13:50.914Z,8.98
2023-12-07T20:16:18.643Z,8.02
2023-12-07T20:18:45.317Z,8.38
2023-12-07T20:21:12.940Z,8.40
2023-12-07T20:23:39.586Z,9.35
2023-12-07T20:26:06.121Z,8.80
2023-12-07T20:28:32.844Z,9.20
2023-12-07T20:30:59.225Z,10.52
2023-12-07T20:33:25.796Z,9.10
2023-12-07T20:35:52.324Z,7.93
2023-12-07T20:38:18.643Z,7.93
2023-12-07T20:40:46.096Z,9.02
2023-12-07T20:43:12.426Z,6.40
2023-12-07T20:45:38.864Z,6.73
2023-12-07T20:48:05.448Z,7.63
2023-12-07T20:50:31.893Z,7.30
2023-12-07T20:52:58.247Z,7.47
2023-12-07T20:55:24.600Z,6.75
2023-12-07T20:57:50.941Z,6.27
2023-12-07T21:00:18.220Z,6.85
2023-12-07T21:02:44.682Z,7.57
2023-12-07T21:05:11.045Z,6.45
2023-12-07T21:07:37.542Z,8.68
2023-12-07T21:10:04.285Z,6.60
2023-12-07T21:12:30.682Z,7.10
2023-12-07T21:14:57.123Z,6.15
2023-12-07T21:17:23.708Z,6.22
2023-12-07T21:19:50.350Z,8.07
2023-12-07T21:22:18.360Z,7.33
2023-12-07T21:24:44.815Z,7.05
2023-12-07T21:27:11.186Z,8.13
2023-12-07T21:29:37.656Z,6.88
2023-12-07T21:32:04.264Z,6.38
2023-12-07T21:34:30.720Z,7.53
2023-12-07T21:36:57.276Z,7.35
2023-12-07T21:39:23.677Z,6.68
2023-12-07T21:41:50.205Z,7.20
2023-12-07T21:44:16.738Z,6.88
2023-12-07T21:46:44.630Z,6.73
2023-12-07T21:49:11.165Z,6.55
2023-12-07T21:51:37.637Z,7.53
2023-12-07T21:54:04.075Z,7.35
2023-12-07T21:56:30.544Z,6.75
2023-12-07T21:58:56.878Z,6.47
2023-12-07T22:01:23.253Z,7.35
2023-12-07T22:03:49.649Z,7.25
2023-12-07T22:06:26.379Z,9.07
2023-12-07T22:08:54.086Z,7.78
2023-12-07T22:11:21.225Z,7.50
2023-12-07T22:13:47.600Z,10.05
2023-12-07T22:16:14.032Z,9.23
2023-12-07T22:18:40.896Z,10.15
2023-12-07T22:21:07.980Z,8.93
2023-12-07T22:23:34.466Z,9.93
2023-12-07T22:26:00.834Z,10.77
2023-12-07T22:28:27.965Z,9.30
2023-12-07T22:30:54.299Z,7.30
2023-12-07T22:33:20.854Z,9.80
2023-12-07T22:35:47.457Z,9.63
2023-12-07T22:38:13.945Z,8.05
2023-12-07T22:40:40.393Z,9.05
2023-12-07T22:43:06.850Z,8.00
2023-12-07T22:45:34.768Z,8.32
2023-12-07T22:48:01.219Z,9.07
2023-12-07T22:50:27.686Z,9.60
2023-12-07T22:52:54.048Z,6.65
2023-12-07T22:55:20.356Z,7.55
2023-12-07T22:57:46.727Z,7.45
2023-12-07T23:00:13.324Z,6.87
2023-12-07T23:02:39.731Z,9.00
2023-12-07T23:05:07.635Z,8.40
2023-12-07T23:07:34.169Z,7.03
2023-12-07T23:10:00.543Z,7.32
2023-12-07T23:12:26.868Z,7.33
2023-12-07T23:14:53.620Z,8.50
2023-12-07T23:17:20.089Z,8.75
2023-12-07T23:19:46.454Z,7.65
2023-12-07T23:22:13.021Z,7.65
2023-12-07T23:24:39.400Z,8.73
2023-12-07T23:27:06.093Z,8.63
2023-12-07T23:29:33.224Z,9.55
2023-12-07T23:32:00.300Z,8.35
2023-12-07T23:34:26.655Z,8.52
2023-12-07T23:36:53.032Z,7.60
2023-12-07T23:39:19.421Z,8.02
2023-12-07T23:41:46.537Z,8.43
2023-12-07T23:44:13.023Z,8.60
2023-12-07T23:46:42.304Z,8.68
2023-12-07T23:49:09.221Z,8.07
2023-12-07T23:51:35.771Z,8.52
2023-12-07T23:54:02.348Z,8.20
2023-12-07T23:56:29.455Z,8.75
2023-12-07T23:58:55.940Z,8.95
